Terminal Aerodrome Forecast
Issued by NWS Corpus Christi, TX

Home | Current Version | Previous Version | Text Only | Print | Product List | Glossary On
Versions: 1 2 3 4 5 6 7 8 9 10 11 12 13 14 15 16 17 18 19 20 21 22 23 24 25 26 27 28 29 30
000
FTUS44 KCRP 221131
TAFCRP
TAF
KCRP 221131Z 2212/2312 30020G27KT P6SM SKC WS015/29060KT
     FM221500 29031G41KT P6SM SKC
     FM222200 31017G24KT P6SM SKC
     FM230000 30012KT P6SM SKC
     FM230500 30006KT P6SM SKC=

USA.gov is the U.S. government's official web portal to all federal, state and local government web resources and services.